sensor_id;sensor_type;location;lat;lon;timestamp;temperature;humidity
68943;DHT22;60852;52.190;4.422;2023-01-24T00:00:38;4.97;74.57
68943;DHT22;60852;52.190;4.422;2023-01-24T00:03:03;5.00;74.96
68943;DHT22;60852;52.190;4.422;2023-01-24T00:05:29;5.06;74.70
68943;DHT22;60852;52.190;4.422;2023-01-24T00:07:57;5.09;74.64
68943;DHT22;60852;52.190;4.422;2023-01-24T00:10:23;5.05;74.65
68943;DHT22;60852;52.190;4.422;2023-01-24T00:12:49;5.05;74.92
68943;DHT22;60852;52.190;4.422;2023-01-24T00:15:15;5.14;74.81
68943;DHT22;60852;52.190;4.422;2023-01-24T00:17:40;5.20;74.63
68943;DHT22;60852;52.190;4.422;2023-01-24T00:20:06;5.23;74.10
68943;DHT22;60852;52.190;4.422;2023-01-24T00:22:32;5.27;74.07
68943;DHT22;60852;52.190;4.422;2023-01-24T00:24:57;5.19;74.03
68943;DHT22;60852;52.190;4.422;2023-01-24T00:27:23;5.23;74.10
68943;DHT22;60852;52.190;4.422;2023-01-24T00:29:48;5.24;74.09
68943;DHT22;60852;52.190;4.422;2023-01-24T00:32:13;5.28;73.66
68943;DHT22;60852;52.190;4.422;2023-01-24T00:34:39;5.27;73.55
68943;DHT22;60852;52.190;4.422;2023-01-24T00:37:05;5.24;73.70
68943;DHT22;60852;52.190;4.422;2023-01-24T00:39:30;5.17;74.09
68943;DHT22;60852;52.190;4.422;2023-01-24T00:41:56;5.14;74.23
68943;DHT22;60852;52.190;4.422;2023-01-24T00:44:21;5.07;74.33
68943;DHT22;60852;52.190;4.422;2023-01-24T00:46:46;5.03;74.59
68943;DHT22;60852;52.190;4.422;2023-01-24T00:49:12;5.03;74.38
68943;DHT22;60852;52.190;4.422;2023-01-24T00:51:37;5.01;74.83
68943;DHT22;60852;52.190;4.422;2023-01-24T00:54:03;5.09;74.16
68943;DHT22;60852;52.190;4.422;2023-01-24T00:56:28;5.06;74.37
68943;DHT22;60852;52.190;4.422;2023-01-24T00:58:54;5.06;74.00
68943;DHT22;60852;52.190;4.422;2023-01-24T01:01:20;5.13;74.27
68943;DHT22;60852;52.190;4.422;2023-01-24T01:03:45;5.19;73.80
68943;DHT22;60852;52.190;4.422;2023-01-24T01:06:15;5.19;73.73
68943;DHT22;60852;52.190;4.422;2023-01-24T01:08:41;5.20;73.68
68943;DHT22;60852;52.190;4.422;2023-01-24T01:11:07;5.27;73.52
68943;DHT22;60852;52.190;4.422;2023-01-24T01:13:33;5.27;73.33
68943;DHT22;60852;52.190;4.422;2023-01-24T01:16:04;5.30;72.99
68943;DHT22;60852;52.190;4.422;2023-01-24T01:18:30;5.20;72.51
68943;DHT22;60852;52.190;4.422;2023-01-24T01:20:55;5.13;72.90
68943;DHT22;60852;52.190;4.422;2023-01-24T01:23:20;5.10;72.86
68943;DHT22;60852;52.190;4.422;2023-01-24T01:25:46;5.03;73.10
68943;DHT22;60852;52.190;4.422;2023-01-24T01:28:11;4.96;73.16
68943;DHT22;60852;52.190;4.422;2023-01-24T01:30:37;4.86;73.95
68943;DHT22;60852;52.190;4.422;2023-01-24T01:33:02;4.90;73.95
68943;DHT22;60852;52.190;4.422;2023-01-24T01:35:28;4.93;73.84
68943;DHT22;60852;52.190;4.422;2023-01-24T01:37:53;4.96;73.77
68943;DHT22;60852;52.190;4.422;2023-01-24T01:40:19;5.03;73.33
68943;DHT22;60852;52.190;4.422;2023-01-24T01:42:51;5.16;73.27
68943;DHT22;60852;52.190;4.422;2023-01-24T01:45:44;5.19;72.68
68943;DHT22;60852;52.190;4.422;2023-01-24T01:51:01;5.22;72.67
68943;DHT22;60852;52.190;4.422;2023-01-24T01:53:33;5.24;72.63
68943;DHT22;60852;52.190;4.422;2023-01-24T01:56:05;5.17;72.19
68943;DHT22;60852;52.190;4.422;2023-01-24T01:58:33;5.07;72.61
68943;DHT22;60852;52.190;4.422;2023-01-24T02:00:59;4.96;73.10
68943;DHT22;60852;52.190;4.422;2023-01-24T02:03:36;4.96;73.15
68943;DHT22;60852;52.190;4.422;2023-01-24T02:06:15;4.82;73.96
68943;DHT22;60852;52.190;4.422;2023-01-24T02:08:44;4.71;73.77
68943;DHT22;60852;52.190;4.422;2023-01-24T02:11:12;4.64;74.21
68943;DHT22;60852;52.190;4.422;2023-01-24T02:13:58;4.58;74.10
68943;DHT22;60852;52.190;4.422;2023-01-24T02:16:43;4.55;74.34
68943;DHT22;60852;52.190;4.422;2023-01-24T02:19:20;4.52;74.51
68943;DHT22;60852;52.190;4.422;2023-01-24T02:21:53;4.58;74.59
68943;DHT22;60852;52.190;4.422;2023-01-24T02:24:38;4.65;74.30
68943;DHT22;60852;52.190;4.422;2023-01-24T02:27:06;4.65;74.31
68943;DHT22;60852;52.190;4.422;2023-01-24T02:29:31;4.66;74.13
68943;DHT22;60852;52.190;4.422;2023-01-24T02:32:02;4.79;73.84
68943;DHT22;60852;52.190;4.422;2023-01-24T02:34:30;4.85;73.52
68943;DHT22;60852;52.190;4.422;2023-01-24T02:37:01;4.93;73.37
68943;DHT22;60852;52.190;4.422;2023-01-24T02:39:55;4.96;73.03
68943;DHT22;60852;52.190;4.422;2023-01-24T02:42:38;5.00;72.98
68943;DHT22;60852;52.190;4.422;2023-01-24T02:45:18;4.95;72.90
68943;DHT22;60852;52.190;4.422;2023-01-24T02:47:51;4.92;73.35
68943;DHT22;60852;52.190;4.422;2023-01-24T02:50:19;4.92;73.48
68943;DHT22;60852;52.190;4.422;2023-01-24T02:52:46;4.92;73.24
68943;DHT22;60852;52.190;4.422;2023-01-24T02:55:30;4.87;73.53
68943;DHT22;60852;52.190;4.422;2023-01-24T02:57:57;4.85;73.52
68943;DHT22;60852;52.190;4.422;2023-01-24T03:00:34;4.76;73.60
68943;DHT22;60852;52.190;4.422;2023-01-24T03:03:01;4.69;73.78
68943;DHT22;60852;52.190;4.422;2023-01-24T03:05:30;4.71;74.01
68943;DHT22;60852;52.190;4.422;2023-01-24T03:08:05;4.73;73.35
68943;DHT22;60852;52.190;4.422;2023-01-24T03:10:31;4.62;73.64
68943;DHT22;60852;52.190;4.422;2023-01-24T03:12:56;4.48;73.74
68943;DHT22;60852;52.190;4.422;2023-01-24T03:15:40;4.45;74.06
68943;DHT22;60852;52.190;4.422;2023-01-24T03:18:24;4.47;74.31
68943;DHT22;60852;52.190;4.422;2023-01-24T03:21:08;4.54;74.03
68943;DHT22;60852;52.190;4.422;2023-01-24T03:23:53;4.54;74.03
68943;DHT22;60852;52.190;4.422;2023-01-24T03:26:37;4.61;74.20
68943;DHT22;60852;52.190;4.422;2023-01-24T03:29:21;4.66;73.88
68943;DHT22;60852;52.190;4.422;2023-01-24T03:32:05;4.71;73.77
68943;DHT22;60852;52.190;4.422;2023-01-24T03:34:49;4.65;73.88
68943;DHT22;60852;52.190;4.422;2023-01-24T03:37:19;4.59;74.09
68943;DHT22;60852;52.190;4.422;2023-01-24T03:40:06;4.58;74.34
68943;DHT22;60852;52.190;4.422;2023-01-24T03:42:32;4.54;74.29
68943;DHT22;60852;52.190;4.422;2023-01-24T03:44:58;4.52;74.59
68943;DHT22;60852;52.190;4.422;2023-01-24T03:47:24;4.59;74.57
68943;DHT22;60852;52.190;4.422;2023-01-24T03:49:49;4.61;74.47
68943;DHT22;60852;52.190;4.422;2023-01-24T03:52:33;4.65;74.46
68943;DHT22;60852;52.190;4.422;2023-01-24T03:55:00;4.69;74.32
68943;DHT22;60852;52.190;4.422;2023-01-24T03:57:27;4.69;74.38
68943;DHT22;60852;52.190;4.422;2023-01-24T03:59:53;4.69;74.28
68943;DHT22;60852;52.190;4.422;2023-01-24T04:02:19;4.65;74.38
68943;DHT22;60852;52.190;4.422;2023-01-24T04:04:45;4.66;73.88
68943;DHT22;60852;52.190;4.422;2023-01-24T04:07:47;4.61;73.99
68943;DHT22;60852;52.190;4.422;2023-01-24T04:10:12;4.65;73.97
68943;DHT22;60852;52.190;4.422;2023-01-24T04:12:42;4.72;74.07
68943;DHT22;60852;52.190;4.422;2023-01-24T04:15:17;4.75;73.44
68943;DHT22;60852;52.190;4.422;2023-01-24T04:17:42;4.71;73.60
68943;DHT22;60852;52.190;4.422;2023-01-24T04:20:08;4.65;73.88
68943;DHT22;60852;52.190;4.422;2023-01-24T04:22:34;4.58;74.32
68943;DHT22;60852;52.190;4.422;2023-01-24T04:24:59;4.52;74.50
68943;DHT22;60852;52.190;4.422;2023-01-24T04:27:25;4.49;74.80
68943;DHT22;60852;52.190;4.422;2023-01-24T04:29:50;4.48;74.56
68943;DHT22;60852;52.190;4.422;2023-01-24T04:32:16;4.40;74.88
68943;DHT22;60852;52.190;4.422;2023-01-24T04:34:41;4.35;74.80
68943;DHT22;60852;52.190;4.422;2023-01-24T04:37:07;4.41;75.15
68943;DHT22;60852;52.190;4.422;2023-01-24T04:39:32;4.51;74.61
68943;DHT22;60852;52.190;4.422;2023-01-24T04:41:57;4.55;74.08
68943;DHT22;60852;52.190;4.422;2023-01-24T04:44:23;4.59;74.41
68943;DHT22;60852;52.190;4.422;2023-01-24T04:46:48;4.61;74.19
68943;DHT22;60852;52.190;4.422;2023-01-24T04:49:14;4.61;74.04
68943;DHT22;60852;52.190;4.422;2023-01-24T04:51:39;4.48;74.30
68943;DHT22;60852;52.190;4.422;2023-01-24T04:54:09;4.47;74.47
68943;DHT22;60852;52.190;4.422;2023-01-24T04:56:35;4.45;74.67
68943;DHT22;60852;52.190;4.422;2023-01-24T04:59:01;4.47;74.38
68943;DHT22;60852;52.190;4.422;2023-01-24T05:01:26;4.40;74.75
68943;DHT22;60852;52.190;4.422;2023-01-24T05:03:52;4.37;75.02
68943;DHT22;60852;52.190;4.422;2023-01-24T05:06:27;4.35;74.80
68943;DHT22;60852;52.190;4.422;2023-01-24T05:08:54;4.25;75.00
68943;DHT22;60852;52.190;4.422;2023-01-24T05:11:19;4.28;75.19
68943;DHT22;60852;52.190;4.422;2023-01-24T05:13:45;4.31;75.26
68943;DHT22;60852;52.190;4.422;2023-01-24T05:16:10;4.28;75.35
68943;DHT22;60852;52.190;4.422;2023-01-24T05:18:36;4.24;75.08
68943;DHT22;60852;52.190;4.422;2023-01-24T05:21:10;4.27;75.17
68943;DHT22;60852;52.190;4.422;2023-01-24T05:23:36;4.35;75.32
68943;DHT22;60852;52.190;4.422;2023-01-24T05:26:03;4.38;74.33
68943;DHT22;60852;52.190;4.422;2023-01-24T05:28:29;4.37;74.42
68943;DHT22;60852;52.190;4.422;2023-01-24T05:31:02;4.31;74.47
68943;DHT22;60852;52.190;4.422;2023-01-24T05:33:28;4.31;74.54
68943;DHT22;60852;52.190;4.422;2023-01-24T05:36:01;4.34;74.59
68943;DHT22;60852;52.190;4.422;2023-01-24T05:38:26;4.44;74.63
68943;DHT22;60852;52.190;4.422;2023-01-24T05:40:52;4.45;74.08
68943;DHT22;60852;52.190;4.422;2023-01-24T05:43:17;4.47;74.16
68943;DHT22;60852;52.190;4.422;2023-01-24T05:45:43;4.42;74.22
68943;DHT22;60852;52.190;4.422;2023-01-24T05:48:08;4.47;74.29
68943;DHT22;60852;52.190;4.422;2023-01-24T05:50:36;4.54;74.09
68943;DHT22;60852;52.190;4.422;2023-01-24T05:53:02;4.47;74.14
68943;DHT22;60852;52.190;4.422;2023-01-24T05:55:28;4.47;74.22
68943;DHT22;60852;52.190;4.422;2023-01-24T05:57:53;4.47;74.09
68943;DHT22;60852;52.190;4.422;2023-01-24T06:00:19;4.42;74.27
68943;DHT22;60852;52.190;4.422;2023-01-24T06:02:44;4.47;74.32
68943;DHT22;60852;52.190;4.422;2023-01-24T06:05:10;4.42;74.49
68943;DHT22;60852;52.190;4.422;2023-01-24T06:07:35;4.54;74.47
68943;DHT22;60852;52.190;4.422;2023-01-24T06:10:01;4.59;74.24
68943;DHT22;60852;52.190;4.422;2023-01-24T06:12:26;4.65;73.91
68943;DHT22;60852;52.190;4.422;2023-01-24T06:14:51;4.73;73.87
68943;DHT22;60852;52.190;4.422;2023-01-24T06:17:17;4.77;73.71
68943;DHT22;60852;52.190;4.422;2023-01-24T06:19:43;4.85;73.57
68943;DHT22;60852;52.190;4.422;2023-01-24T06:24:44;4.68;73.53
68943;DHT22;60852;52.190;4.422;2023-01-24T06:27:09;4.64;74.29
68943;DHT22;60852;52.190;4.422;2023-01-24T06:29:35;4.58;74.20
68943;DHT22;60852;52.190;4.422;2023-01-24T06:37:42;4.51;74.90
68943;DHT22;60852;52.190;4.422;2023-01-24T06:40:11;4.54;75.21
68943;DHT22;60852;52.190;4.422;2023-01-24T06:42:37;4.66;75.07
68943;DHT22;60852;52.190;4.422;2023-01-24T06:45:04;4.77;74.75
68943;DHT22;60852;52.190;4.422;2023-01-24T06:47:30;4.76;73.99
68943;DHT22;60852;52.190;4.422;2023-01-24T06:49:56;4.73;74.18
68943;DHT22;60852;52.190;4.422;2023-01-24T06:52:22;4.68;74.28
68943;DHT22;60852;52.190;4.422;2023-01-24T06:54:47;4.72;73.90
68943;DHT22;60852;52.190;4.422;2023-01-24T06:57:13;4.72;73.81
68943;DHT22;60852;52.190;4.422;2023-01-24T06:59:38;4.68;74.07
68943;DHT22;60852;52.190;4.422;2023-01-24T07:02:04;4.69;74.47
68943;DHT22;60852;52.190;4.422;2023-01-24T07:04:29;4.71;74.70
68943;DHT22;60852;52.190;4.422;2023-01-24T07:06:55;4.72;74.28
68943;DHT22;60852;52.190;4.422;2023-01-24T07:09:22;4.66;74.28
68943;DHT22;60852;52.190;4.422;2023-01-24T07:11:48;4.69;74.51
68943;DHT22;60852;52.190;4.422;2023-01-24T07:14:18;4.66;74.63
68943;DHT22;60852;52.190;4.422;2023-01-24T07:16:43;4.71;74.61
68943;DHT22;60852;52.190;4.422;2023-01-24T07:19:15;4.68;73.97
68943;DHT22;60852;52.190;4.422;2023-01-24T07:21:41;4.55;74.14
68943;DHT22;60852;52.190;4.422;2023-01-24T07:24:17;4.41;74.89
68943;DHT22;60852;52.190;4.422;2023-01-24T07:26:44;4.34;75.42
68943;DHT22;60852;52.190;4.422;2023-01-24T07:29:09;4.25;75.77
68943;DHT22;60852;52.190;4.422;2023-01-24T07:31:37;4.21;76.06
68943;DHT22;60852;52.190;4.422;2023-01-24T07:34:02;4.17;76.34
68943;DHT22;60852;52.190;4.422;2023-01-24T07:36:28;4.18;76.69
68943;DHT22;60852;52.190;4.422;2023-01-24T07:38:54;4.22;76.92
68943;DHT22;60852;52.190;4.422;2023-01-24T07:41:19;4.33;76.23
68943;DHT22;60852;52.190;4.422;2023-01-24T07:43:45;4.33;75.63
68943;DHT22;60852;52.190;4.422;2023-01-24T07:46:10;4.40;75.62
68943;DHT22;60852;52.190;4.422;2023-01-24T07:48:37;4.27;75.69
68943;DHT22;60852;52.190;4.422;2023-01-24T07:51:02;4.17;75.78
68943;DHT22;60852;52.190;4.422;2023-01-24T07:53:28;4.18;76.33
68943;DHT22;60852;52.190;4.422;2023-01-24T07:55:54;4.10;75.98
68943;DHT22;60852;52.190;4.422;2023-01-24T07:58:19;4.08;76.46
68943;DHT22;60852;52.190;4.422;2023-01-24T08:00:45;4.07;76.36
68943;DHT22;60852;52.190;4.422;2023-01-24T08:03:10;4.08;76.59
68943;DHT22;60852;52.190;4.422;2023-01-24T08:05:38;4.06;76.51
68943;DHT22;60852;52.190;4.422;2023-01-24T08:08:04;3.98;76.66
68943;DHT22;60852;52.190;4.422;2023-01-24T08:10:30;3.90;77.02
68943;DHT22;60852;52.190;4.422;2023-01-24T08:12:56;3.87;77.29
68943;DHT22;60852;52.190;4.422;2023-01-24T08:15:22;3.89;77.30
68943;DHT22;60852;52.190;4.422;2023-01-24T08:17:48;3.87;77.54
68943;DHT22;60852;52.190;4.422;2023-01-24T08:20:14;3.80;77.77
68943;DHT22;60852;52.190;4.422;2023-01-24T08:22:40;3.82;78.19
68943;DHT22;60852;52.190;4.422;2023-01-24T08:25:07;3.96;77.83
68943;DHT22;60852;52.190;4.422;2023-01-24T08:27:33;4.00;77.56
68943;DHT22;60852;52.190;4.422;2023-01-24T08:29:59;3.97;76.78
68943;DHT22;60852;52.190;4.422;2023-01-24T08:32:24;3.86;77.12
68943;DHT22;60852;52.190;4.422;2023-01-24T08:34:49;3.76;77.64
68943;DHT22;60852;52.190;4.422;2023-01-24T08:37:16;3.80;77.78
68943;DHT22;60852;52.190;4.422;2023-01-24T08:39:41;3.86;77.86
68943;DHT22;60852;52.190;4.422;2023-01-24T08:42:07;3.87;77.82
68943;DHT22;60852;52.190;4.422;2023-01-24T08:44:33;3.87;77.15
68943;DHT22;60852;52.190;4.422;2023-01-24T08:46:59;3.93;77.12
68943;DHT22;60852;52.190;4.422;2023-01-24T08:49:24;3.97;76.98
68943;DHT22;60852;52.190;4.422;2023-01-24T08:51:50;3.89;76.90
68943;DHT22;60852;52.190;4.422;2023-01-24T08:54:25;3.91;77.32
68943;DHT22;60852;52.190;4.422;2023-01-24T08:56:50;4.04;77.49
68943;DHT22;60852;52.190;4.422;2023-01-24T08:59:15;4.10;76.71
68943;DHT22;60852;52.190;4.422;2023-01-24T09:01:41;4.03;77.02
68943;DHT22;60852;52.190;4.422;2023-01-24T09:04:08;4.01;77.26
68943;DHT22;60852;52.190;4.422;2023-01-24T09:06:34;3.98;77.06
68943;DHT22;60852;52.190;4.422;2023-01-24T09:08:59;3.94;77.19
68943;DHT22;60852;52.190;4.422;2023-01-24T09:11:25;3.98;77.36
68943;DHT22;60852;52.190;4.422;2023-01-24T09:13:51;4.03;77.34
68943;DHT22;60852;52.190;4.422;2023-01-24T09:16:17;4.08;77.34
68943;DHT22;60852;52.190;4.422;2023-01-24T09:18:42;4.16;77.24
68943;DHT22;60852;52.190;4.422;2023-01-24T09:21:08;4.27;76.97
68943;DHT22;60852;52.190;4.422;2023-01-24T09:23:33;4.41;76.31
68943;DHT22;60852;52.190;4.422;2023-01-24T09:25:58;4.33;75.89
68943;DHT22;60852;52.190;4.422;2023-01-24T09:28:24;4.30;76.53
68943;DHT22;60852;52.190;4.422;2023-01-24T09:30:50;4.24;76.42
68943;DHT22;60852;52.190;4.422;2023-01-24T09:33:17;4.30;76.71
68943;DHT22;60852;52.190;4.422;2023-01-24T09:35:53;4.30;76.53
68943;DHT22;60852;52.190;4.422;2023-01-24T09:38:20;4.33;76.64
68943;DHT22;60852;52.190;4.422;2023-01-24T09:46:11;4.24;76.30
68943;DHT22;60852;52.190;4.422;2023-01-24T09:48:40;4.18;76.58
68943;DHT22;60852;52.190;4.422;2023-01-24T09:51:19;4.17;76.95
68943;DHT22;60852;52.190;4.422;2023-01-24T09:53:51;4.30;76.88
68943;DHT22;60852;52.190;4.422;2023-01-24T09:56:37;4.33;76.04
68943;DHT22;60852;52.190;4.422;2023-01-24T10:01:39;4.16;77.45
68943;DHT22;60852;52.190;4.422;2023-01-24T10:04:31;4.14;77.21
68943;DHT22;60852;52.190;4.422;2023-01-24T10:10:53;4.07;77.87
68943;DHT22;60852;52.190;4.422;2023-01-24T10:13:59;4.11;78.04
68943;DHT22;60852;52.190;4.422;2023-01-24T10:21:57;4.48;76.89
68943;DHT22;60852;52.190;4.422;2023-01-24T10:24:35;4.59;76.66
68943;DHT22;60852;52.190;4.422;2023-01-24T10:27:16;4.65;76.25
68943;DHT22;60852;52.190;4.422;2023-01-24T10:29:47;4.65;75.73
68943;DHT22;60852;52.190;4.422;2023-01-24T10:32:32;4.62;76.15
68943;DHT22;60852;52.190;4.422;2023-01-24T10:35:10;4.69;76.14
68943;DHT22;60852;52.190;4.422;2023-01-24T10:37:42;4.62;75.33
68943;DHT22;60852;52.190;4.422;2023-01-24T10:40:11;4.56;75.75
68943;DHT22;60852;52.190;4.422;2023-01-24T10:42:37;4.55;75.52
68943;DHT22;60852;52.190;4.422;2023-01-24T10:48:23;4.30;75.67
68943;DHT22;60852;52.190;4.422;2023-01-24T10:50:52;4.22;76.27
68943;DHT22;60852;52.190;4.422;2023-01-24T10:53:26;4.22;76.59
68943;DHT22;60852;52.190;4.422;2023-01-24T10:56:05;4.14;76.28
68943;DHT22;60852;52.190;4.422;2023-01-24T11:01:36;4.21;76.02
68943;DHT22;60852;52.190;4.422;2023-01-24T11:04:21;4.11;75.84
68943;DHT22;60852;52.190;4.422;2023-01-24T11:06:49;4.04;76.93
68943;DHT22;60852;52.190;4.422;2023-01-24T11:09:18;4.06;76.67
68943;DHT22;60852;52.190;4.422;2023-01-24T11:11:49;4.03;76.62
68943;DHT22;60852;52.190;4.422;2023-01-24T11:14:27;4.01;76.92
68943;DHT22;60852;52.190;4.422;2023-01-24T11:16:57;4.13;77.11
68943;DHT22;60852;52.190;4.422;2023-01-24T11:19:41;4.27;76.93
68943;DHT22;60852;52.190;4.422;2023-01-24T11:22:26;4.17;75.95
68943;DHT22;60852;52.190;4.422;2023-01-24T11:24:59;4.08;76.40
68943;DHT22;60852;52.190;4.422;2023-01-24T11:27:26;4.01;76.73
68943;DHT22;60852;52.190;4.422;2023-01-24T11:33:05;3.94;77.12
68943;DHT22;60852;52.190;4.422;2023-01-24T11:35:44;4.01;77.78
68943;DHT22;60852;52.190;4.422;2023-01-24T11:40:47;4.11;77.57
68943;DHT22;60852;52.190;4.422;2023-01-24T11:46:49;4.41;76.55
68943;DHT22;60852;52.190;4.422;2023-01-24T11:49:41;4.48;76.36
68943;DHT22;60852;52.190;4.422;2023-01-24T11:52:45;4.58;76.38
68943;DHT22;60852;52.190;4.422;2023-01-24T11:55:37;4.66;75.40
68943;DHT22;60852;52.190;4.422;2023-01-24T12:09:25;4.48;75.67
68943;DHT22;60852;52.190;4.422;2023-01-24T12:15:12;4.66;75.64
68943;DHT22;60852;52.190;4.422;2023-01-24T12:20:52;4.54;75.31
68943;DHT22;60852;52.190;4.422;2023-01-24T12:23:24;4.59;75.15
68943;DHT22;60852;52.190;4.422;2023-01-24T12:25:57;4.58;75.22
68943;DHT22;60852;52.190;4.422;2023-01-24T12:28:35;4.66;74.64
68943;DHT22;60852;52.190;4.422;2023-01-24T12:31:06;4.49;74.35
68943;DHT22;60852;52.190;4.422;2023-01-24T12:33:40;4.21;75.43
68943;DHT22;60852;52.190;4.422;2023-01-24T12:36:27;4.00;76.20
68943;DHT22;60852;52.190;4.422;2023-01-24T12:39:00;3.82;76.94
68943;DHT22;60852;52.190;4.422;2023-01-24T12:41:36;3.76;77.36
68943;DHT22;60852;52.190;4.422;2023-01-24T12:44:28;3.70;77.90
68943;DHT22;60852;52.190;4.422;2023-01-24T12:52:12;3.65;78.18
68943;DHT22;60852;52.190;4.422;2023-01-24T12:54:51;3.76;78.18
68943;DHT22;60852;52.190;4.422;2023-01-24T13:00:24;3.66;78.22
68943;DHT22;60852;52.190;4.422;2023-01-24T13:03:31;3.80;78.30
68943;DHT22;60852;52.190;4.422;2023-01-24T13:08:33;3.66;78.02
68943;DHT22;60852;52.190;4.422;2023-01-24T13:11:10;3.73;78.58
68943;DHT22;60852;52.190;4.422;2023-01-24T13:16:56;4.11;77.67
68943;DHT22;60852;52.190;4.422;2023-01-24T13:19:42;4.21;77.06
68943;DHT22;60852;52.190;4.422;2023-01-24T13:28:11;4.27;76.49
68943;DHT22;60852;52.190;4.422;2023-01-24T13:33:36;4.42;75.41
68943;DHT22;60852;52.190;4.422;2023-01-24T13:36:05;4.35;75.28
68943;DHT22;60852;52.190;4.422;2023-01-24T13:38:40;4.16;75.60
68943;DHT22;60852;52.190;4.422;2023-01-24T13:41:16;3.93;77.14
68943;DHT22;60852;52.190;4.422;2023-01-24T13:47:32;4.08;77.61
68943;DHT22;60852;52.190;4.422;2023-01-24T13:54:55;4.20;76.83
68943;DHT22;60852;52.190;4.422;2023-01-24T14:00:19;4.27;77.00
68943;DHT22;60852;52.190;4.422;2023-01-24T14:08:01;4.52;76.81
68943;DHT22;60852;52.190;4.422;2023-01-24T14:10:38;4.59;75.93
68943;DHT22;60852;52.190;4.422;2023-01-24T14:13:05;4.64;75.82
68943;DHT22;60852;52.190;4.422;2023-01-24T14:15:50;4.73;75.10
68943;DHT22;60852;52.190;4.422;2023-01-24T14:18:48;4.49;74.28
68943;DHT22;60852;52.190;4.422;2023-01-24T14:21:31;4.10;75.85
68943;DHT22;60852;52.190;4.422;2023-01-24T14:24:20;3.97;77.20
68943;DHT22;60852;52.190;4.422;2023-01-24T14:26:50;3.91;77.29
68943;DHT22;60852;52.190;4.422;2023-01-24T14:29:17;3.89;78.08
68943;DHT22;60852;52.190;4.422;2023-01-24T14:31:48;4.01;78.19
68943;DHT22;60852;52.190;4.422;2023-01-24T14:34:28;4.17;77.26
68943;DHT22;60852;52.190;4.422;2023-01-24T14:37:08;4.28;77.42
68943;DHT22;60852;52.190;4.422;2023-01-24T14:39:34;4.35;76.68
68943;DHT22;60852;52.190;4.422;2023-01-24T14:42:02;4.40;76.50
68943;DHT22;60852;52.190;4.422;2023-01-24T14:44:31;4.42;76.63
68943;DHT22;60852;52.190;4.422;2023-01-24T14:47:12;4.42;74.89
68943;DHT22;60852;52.190;4.422;2023-01-24T14:49:45;4.13;75.86
68943;DHT22;60852;52.190;4.422;2023-01-24T14:52:28;3.98;76.88
68943;DHT22;60852;52.190;4.422;2023-01-24T14:57:43;3.83;77.30
68943;DHT22;60852;52.190;4.422;2023-01-24T15:02:58;3.89;78.30
68943;DHT22;60852;52.190;4.422;2023-01-24T15:05:32;3.96;77.23
68943;DHT22;60852;52.190;4.422;2023-01-24T15:08:00;3.93;77.71
68943;DHT22;60852;52.190;4.422;2023-01-24T15:10:34;3.96;77.96
68943;DHT22;60852;52.190;4.422;2023-01-24T15:13:02;3.98;77.04
68943;DHT22;60852;52.190;4.422;2023-01-24T15:15:31;4.04;77.47
68943;DHT22;60852;52.190;4.422;2023-01-24T15:18:01;4.20;77.24
68943;DHT22;60852;52.190;4.422;2023-01-24T15:20:27;4.21;76.98
68943;DHT22;60852;52.190;4.422;2023-01-24T15:22:56;4.24;76.58
68943;DHT22;60852;52.190;4.422;2023-01-24T15:25:32;4.27;76.07
68943;DHT22;60852;52.190;4.422;2023-01-24T15:30:53;4.01;75.94
68943;DHT22;60852;52.190;4.422;2023-01-24T15:33:19;3.82;76.84
68943;DHT22;60852;52.190;4.422;2023-01-24T15:38:16;3.93;77.53
68943;DHT22;60852;52.190;4.422;2023-01-24T15:46:33;4.07;77.02
68943;DHT22;60852;52.190;4.422;2023-01-24T15:54:53;4.16;76.22
68943;DHT22;60852;52.190;4.422;2023-01-24T15:57:30;4.20;76.30
68943;DHT22;60852;52.190;4.422;2023-01-24T16:00:18;4.20;76.45
68943;DHT22;60852;52.190;4.422;2023-01-24T16:02:45;4.14;76.40
68943;DHT22;60852;52.190;4.422;2023-01-24T16:05:17;4.24;76.45
68943;DHT22;60852;52.190;4.422;2023-01-24T16:07:43;4.13;76.31
68943;DHT22;60852;52.190;4.422;2023-01-24T16:10:15;4.13;76.58
68943;DHT22;60852;52.190;4.422;2023-01-24T16:12:43;4.18;76.68
68943;DHT22;60852;52.190;4.422;2023-01-24T16:15:19;4.31;76.18
68943;DHT22;60852;52.190;4.422;2023-01-24T16:17:45;4.38;75.87
68943;DHT22;60852;52.190;4.422;2023-01-24T16:20:31;4.21;74.60
68943;DHT22;60852;52.190;4.422;2023-01-24T16:22:56;3.97;76.07
68943;DHT22;60852;52.190;4.422;2023-01-24T16:25:22;3.96;76.68
68943;DHT22;60852;52.190;4.422;2023-01-24T16:27:49;4.04;76.41
68943;DHT22;60852;52.190;4.422;2023-01-24T16:30:22;4.08;76.40
68943;DHT22;60852;52.190;4.422;2023-01-24T16:32:48;4.14;76.19
68943;DHT22;60852;52.190;4.422;2023-01-24T16:35:14;4.11;76.14
68943;DHT22;60852;52.190;4.422;2023-01-24T16:37:40;4.16;76.36
68943;DHT22;60852;52.190;4.422;2023-01-24T16:40:09;4.11;76.28
68943;DHT22;60852;52.190;4.422;2023-01-24T16:42:39;4.16;76.26
68943;DHT22;60852;52.190;4.422;2023-01-24T16:45:06;4.06;75.99
68943;DHT22;60852;52.190;4.422;2023-01-24T16:47:32;4.01;76.21
68943;DHT22;60852;52.190;4.422;2023-01-24T16:49:57;3.93;76.75
68943;DHT22;60852;52.190;4.422;2023-01-24T16:52:25;3.97;77.14
68943;DHT22;60852;52.190;4.422;2023-01-24T16:54:51;4.10;76.87
68943;DHT22;60852;52.190;4.422;2023-01-24T16:57:17;4.14;76.20
68943;DHT22;60852;52.190;4.422;2023-01-24T16:59:43;4.04;75.96
68943;DHT22;60852;52.190;4.422;2023-01-24T17:02:10;3.87;76.63
68943;DHT22;60852;52.190;4.422;2023-01-24T17:04:35;3.82;77.13
68943;DHT22;60852;52.190;4.422;2023-01-24T17:07:01;3.77;77.57
68943;DHT22;60852;52.190;4.422;2023-01-24T17:09:30;3.90;77.49
68943;DHT22;60852;52.190;4.422;2023-01-24T17:11:56;3.98;77.21
68943;DHT22;60852;52.190;4.422;2023-01-24T17:14:21;3.90;77.04
68943;DHT22;60852;52.190;4.422;2023-01-24T17:16:47;3.94;77.64
68943;DHT22;60852;52.190;4.422;2023-01-24T17:19:13;3.96;78.18
68943;DHT22;60852;52.190;4.422;2023-01-24T17:21:39;4.14;77.95
68943;DHT22;60852;52.190;4.422;2023-01-24T17:24:04;4.24;77.44
68943;DHT22;60852;52.190;4.422;2023-01-24T17:26:30;4.21;75.85
68943;DHT22;60852;52.190;4.422;2023-01-24T17:28:56;4.07;76.75
68943;DHT22;60852;52.190;4.422;2023-01-24T17:31:21;4.06;77.07
68943;DHT22;60852;52.190;4.422;2023-01-24T17:33:47;4.16;76.94
68943;DHT22;60852;52.190;4.422;2023-01-24T17:36:13;4.22;76.94
68943;DHT22;60852;52.190;4.422;2023-01-24T17:38:40;4.30;76.73
68943;DHT22;60852;52.190;4.422;2023-01-24T17:41:14;4.33;76.19
68943;DHT22;60852;52.190;4.422;2023-01-24T17:43:40;4.28;76.49
68943;DHT22;60852;52.190;4.422;2023-01-24T17:46:06;4.37;76.02
68943;DHT22;60852;52.190;4.422;2023-01-24T17:48:32;4.31;75.65
68943;DHT22;60852;52.190;4.422;2023-01-24T17:51:13;4.21;76.10
68943;DHT22;60852;52.190;4.422;2023-01-24T17:53:40;4.24;76.41
68943;DHT22;60852;52.190;4.422;2023-01-24T17:56:07;4.24;76.44
68943;DHT22;60852;52.190;4.422;2023-01-24T17:58:33;4.27;76.20
68943;DHT22;60852;52.190;4.422;2023-01-24T18:00:59;4.28;76.20
68943;DHT22;60852;52.190;4.422;2023-01-24T18:03:24;4.30;76.08
68943;DHT22;60852;52.190;4.422;2023-01-24T18:05:51;4.35;75.90